ETNL/RLG METAR and TAF weather

Enter ICAO airport designator
Station Type Date Time Source
ETNL METAR 2018/07/21 11:20 UTC NOAA

ETNL 211120Z 04007KT 9999 FEW060 SCT260 25/09 Q1013 BLU+


Station Type Date Time Source
ETNL Decoded METAR 2018/07/21 11:20 UTC NOAA

Laage, Germany (ETNL) 53-55N 012-17E 46M
Jul 21, 2018 - 07:20 AM EDT / 2018.07.21 1120 UTC
Wind: from the NE (040 degrees) at 8 MPH (7 KT):0
Visibility: greater than 7 mile(s):0
Sky conditions: partly cloudy
Temperature: 77 F (25 C)
Dew Point: 48 F (9 C)
Relative Humidity: 36%
Pressure (altimeter): 29.91 in. Hg (1013 hPa)
ob: ETNL 211120Z 04007KT 9999 FEW060 SCT260 25/09 Q1013 BLU+
cycle: 11

Station Type Date Time Source
ETNL TAF 2018/07/21 11:36 UTC NOAA

TAF TAF ETNL 211000Z 2111/2123 02005KT 9999 NSW FEW030 SCT300 BY ETGL


Example: see airport list